Wales, AK

8:06 PM AKDT on August 31, 2016 (GMT -0800)
Tin City LRRS | | Change Station

Elev 272 ft 65.56 °N, 167.92 °W | Updated 11 minutes ago

Mostly Cloudy
Mostly Cloudy
43 °F
Feels Like 32 °F
N
30
Wind Variable Wind from NNE

Today
High -- | Low -- °F
--% Chance of Precip.
Yesterday
High -- | Low -- °F
Precip. -- in
Pressure 30.21 in
Visibility 4.0 miles
Clouds Mostly Cloudy 200 ft
Windchill 32 °F
Dew Point 42 °F
Humidity 98%
Rainfall 0.00 in
Snow Depth Not available.
7:48 AM 10:33 PM
Waning Crescent, 0% visible
METAR PATC 010355Z AUTO 03026KT 4SM BKN002 06/06 A3020 RMK AO2 PK WND 02034/0321 SHRAB0119E0350 SLP229 T00590056
Pressure 30.21 in
Visibility 4.0 miles
Clouds Mostly Cloudy 200 ft
Windchill 32 °F
Dew Point 42 °F
Humidity 98%
Rainfall 0.00 in
Snow Depth Not available.
7:48 AM 10:33 PM
Waning Crescent, 0% visible
METAR PATC 010355Z AUTO 03026KT 4SM BKN002 06/06 A3020 RMK AO2 PK WND 02034/0321 SHRAB0119E0350 SLP229 T00590056

10-Day Weather Forecast

Almanac

Astronomy

Aug. 31, 2016 Rise Set
Actual Time
Civil Twilight
Nautical Twilight
Astronomical Twilight
Moon
Length of Visible Light
Length of Day
Tomorrow will be .
, % of the Moon is Illuminated

Today's Extremes

State Highs State Lows

Community

WunderPhotos

Upload Photos

1,936,293 photos uploaded!

WunderBlog® & News

Nearby

Air Quality

  Air Quality AQ Index Pollutant
Not available.

Snow Depth

Station Depth Elevation

Earthquake Activity

City Distance Mag. Time & Date
Minimum magnitude displayed is 2.5.

Coastal Water Temperatures

Place Temperature

Stations

Nearby Weather Stations

Station Location Temp. Windchill Dew Point Humidity Wind Precip. Elev Updated Type
                   

Watches & Warnings

There are currently no watches in effect.